Time;durP1;ratioP1;P1;durP2;ratioP2;P2;SDS_P1;SDS_P2;PMS_P1;PMS_P2;Temp;Humidity;BMP_temperature;BMP_pressure;BME280_temperature;BME280_humidity;BME280_pressure;Samples;Min_cycle;Max_cycle;Signal;HPM_P1;HPM_P2
2023/07/31 00:01:46;;;;;;;86.47;6.63;;;;;;;;;;5003926;28;20132;-53
2023/07/31 00:04:11;;;;;;;104.07;7.25;;;;;;;;;;5004188;28;20327;-51
2023/07/31 00:06:36;;;;;;;79.05;6.20;;;;;;;;;;5003476;28;20459;-51
2023/07/31 00:09:01;;;;;;;135.40;9.60;;;;;;;;;;5005071;28;20021;-51
2023/07/31 00:11:27;;;;;;;87.18;7.00;;;;;;;;;;5005664;28;20264;-52
2023/07/31 00:13:53;;;;;;;130.70;9.20;;;;;;;;;;5002232;28;20440;-51
2023/07/31 00:16:18;;;;;;;73.15;5.80;;;;;;;;;;5004234;28;20680;-52
2023/07/31 00:18:43;;;;;;;95.40;7.10;;;;;;;;;;5003479;28;20612;-53
2023/07/31 00:21:08;;;;;;;88.83;6.40;;;;;;;;;;5002711;28;20041;-52
2023/07/31 00:23:34;;;;;;;92.93;7.20;;;;;;;;;;5002409;28;20260;-53
2023/07/31 00:25:59;;;;;;;115.57;8.03;;;;;;;;;;5003141;28;20285;-53
2023/07/31 00:28:24;;;;;;;79.93;6.25;;;;;;;;;;5004760;28;20688;-53
2023/07/31 00:30:49;;;;;;;89.47;6.77;;;;;;;;;;5000536;28;20038;-51
2023/07/31 00:33:14;;;;;;;117.73;8.30;;;;;;;;;;5003514;28;20268;-51
2023/07/31 00:35:40;;;;;;;91.38;7.00;;;;;;;;;;5002313;28;20376;-52
2023/07/31 00:38:05;;;;;;;155.40;10.83;;;;;;;;;;5003165;28;20026;-53
2023/07/31 00:40:34;;;;;;;87.93;6.70;;;;;;;;;;5001539;28;20647;-53
2023/07/31 00:42:59;;;;;;;144.27;10.32;;;;;;;;;;5002220;28;20269;-51
2023/07/31 00:45:26;;;;;;;87.00;6.75;;;;;;;;;;5005202;28;20056;-51
2023/07/31 00:47:52;;;;;;;113.07;8.35;;;;;;;;;;5002082;28;20378;-53
2023/07/31 00:50:17;;;;;;;82.57;6.53;;;;;;;;;;5002470;28;20452;-51
2023/07/31 00:52:42;;;;;;;97.70;7.55;;;;;;;;;;5002816;28;20327;-51
2023/07/31 00:55:08;;;;;;;147.20;10.57;;;;;;;;;;5003974;28;20423;-53
2023/07/31 00:57:34;;;;;;;77.85;6.28;;;;;;;;;;5003723;28;20060;-52
2023/07/31 00:59:59;;;;;;;123.80;9.40;;;;;;;;;;5002284;28;20040;-51
2023/07/31 01:02:25;;;;;;;84.28;6.28;;;;;;;;;;5002496;28;20029;-52
2023/07/31 01:04:50;;;;;;;86.55;6.50;;;;;;;;;;5003125;28;20026;-51
2023/07/31 01:07:18;;;;;;;70.20;5.83;;;;;;;;;;5001655;28;20038;-51
2023/07/31 01:09:57;;;;;;;89.88;6.75;;;;;;;;;;5002865;28;20761;-51
2023/07/31 01:12:23;;;;;;;69.15;5.88;;;;;;;;;;5003164;28;20056;-54
2023/07/31 01:14:52;;;;;;;95.95;7.05;;;;;;;;;;5003486;28;20116;-51
2023/07/31 01:17:17;;;;;;;73.30;5.97;;;;;;;;;;5002566;28;20033;-52
2023/07/31 01:19:43;;;;;;;64.37;5.53;;;;;;;;;;5002828;28;20297;-51
2023/07/31 01:22:17;;;;;;;161.95;11.43;;;;;;;;;;5001347;28;20172;-51
2023/07/31 01:24:45;;;;;;;88.20;6.55;;;;;;;;;;5002057;28;20657;-51
2023/07/31 01:27:14;;;;;;;121.00;8.90;;;;;;;;;;5001564;28;20400;-51
2023/07/31 01:29:46;;;;;;;81.55;6.00;;;;;;;;;;5003524;28;20014;-50
2023/07/31 01:32:12;;;;;;;254.43;83.35;;;;;;;;;;5002648;28;20041;-51
2023/07/31 01:34:37;;;;;;;101.82;6.90;;;;;;;;;;5002380;28;20025;-51
2023/07/31 01:37:03;;;;;;;146.00;10.25;;;;;;;;;;4999766;28;20037;-51
2023/07/31 01:39:28;;;;;;;80.20;5.93;;;;;;;;;;5003085;28;20531;-51
2023/07/31 01:41:54;;;;;;;74.88;6.10;;;;;;;;;;5001944;28;20106;-51
2023/07/31 01:44:19;;;;;;;78.43;8.07;;;;;;;;;;5003532;28;20566;-51
2023/07/31 01:46:44;;;;;;;87.70;6.13;;;;;;;;;;5003247;28;20026;-51
2023/07/31 01:49:09;;;;;;;131.57;9.63;;;;;;;;;;5003071;28;20287;-51
2023/07/31 01:51:35;;;;;;;74.93;5.85;;;;;;;;;;5002121;28;20277;-51
2023/07/31 01:54:00;;;;;;;135.02;9.85;;;;;;;;;;4998573;28;20028;-53
2023/07/31 01:56:25;;;;;;;79.82;6.28;;;;;;;;;;5002374;28;20507;-51
2023/07/31 01:58:51;;;;;;;81.03;6.03;;;;;;;;;;5002559;28;20056;-51
2023/07/31 02:01:16;;;;;;;81.37;6.17;;;;;;;;;;5000220;28;20048;-51
2023/07/31 02:03:42;;;;;;;87.97;6.47;;;;;;;;;;5000020;28;20291;-51
2023/07/31 02:06:07;;;;;;;148.98;10.30;;;;;;;;;;5002466;28;20323;-51
2023/07/31 02:08:32;;;;;;;80.18;6.13;;;;;;;;;;5001398;28;20018;-52
2023/07/31 02:10:57;;;;;;;104.53;9.45;;;;;;;;;;5000231;28;20038;-51
2023/07/31 02:13:23;;;;;;;83.90;6.43;;;;;;;;;;5001479;28;20044;-51
2023/07/31 02:15:48;;;;;;;83.57;5.97;;;;;;;;;;5001093;28;20279;-51
2023/07/31 02:18:13;;;;;;;119.10;8.73;;;;;;;;;;5000828;28;20442;-52
2023/07/31 02:20:38;;;;;;;90.47;6.30;;;;;;;;;;4999936;28;20037;-51
2023/07/31 02:23:04;;;;;;;138.80;9.80;;;;;;;;;;5000646;28;20406;-50
2023/07/31 02:25:29;;;;;;;76.47;5.60;;;;;;;;;;5001268;28;20292;-51
2023/07/31 02:27:54;;;;;;;90.03;6.73;;;;;;;;;;5001910;28;20737;-52
2023/07/31 02:30:19;;;;;;;128.60;37.07;;;;;;;;;;5002036;28;20260;-51
2023/07/31 02:32:45;;;;;;;106.03;7.25;;;;;;;;;;5002202;28;20295;-51
2023/07/31 02:35:11;;;;;;;149.67;12.80;;;;;;;;;;5000657;28;20052;-51
2023/07/31 02:37:36;;;;;;;78.57;5.50;;;;;;;;;;5002373;28;20579;-51
2023/07/31 02:40:01;;;;;;;146.52;16.05;;;;;;;;;;5003509;28;20340;-52
2023/07/31 02:42:27;;;;;;;91.70;8.27;;;;;;;;;;5002133;28;20054;-51
2023/07/31 02:44:55;;;;;;;79.68;6.15;;;;;;;;;;4999835;28;20026;-51
2023/07/31 02:47:21;;;;;;;70.00;5.50;;;;;;;;;;4999037;28;20125;-51
2023/07/31 02:49:46;;;;;;;81.07;6.35;;;;;;;;;;5003694;28;20317;-52
2023/07/31 02:52:11;;;;;;;149.93;10.10;;;;;;;;;;5002867;28;20248;-51
2023/07/31 02:54:36;;;;;;;79.10;5.77;;;;;;;;;;5001160;28;20656;-52
2023/07/31 02:57:02;;;;;;;108.60;8.13;;;;;;;;;;5000456;28;20659;-52
2023/07/31 02:59:28;;;;;;;77.38;5.57;;;;;;;;;;5003508;28;20136;-52
2023/07/31 03:01:53;;;;;;;85.75;6.00;;;;;;;;;;5001831;28;20334;-54
2023/07/31 03:04:18;;;;;;;79.53;6.17;;;;;;;;;;5003286;28;20021;-52
2023/07/31 03:06:43;;;;;;;84.80;6.60;;;;;;;;;;5004963;28;20276;-53
2023/07/31 03:09:08;;;;;;;105.30;7.83;;;;;;;;;;5004318;28;20253;-52
2023/07/31 03:11:34;;;;;;;82.90;5.90;;;;;;;;;;5007361;28;20639;-52
2023/07/31 03:13:59;;;;;;;74.13;5.70;;;;;;;;;;5003213;28;20014;-51
2023/07/31 03:16:24;;;;;;;96.33;37.37;;;;;;;;;;5007068;28;20816;-53
2023/07/31 03:18:49;;;;;;;66.40;5.07;;;;;;;;;;5005311;28;20626;-53
2023/07/31 03:21:14;;;;;;;133.00;9.33;;;;;;;;;;5004845;28;20726;-52
2023/07/31 03:23:40;;;;;;;82.00;5.63;;;;;;;;;;5004284;28;20729;-53
2023/07/31 03:26:06;;;;;;;137.73;9.82;;;;;;;;;;5003662;28;20296;-52
2023/07/31 03:28:31;;;;;;;80.93;5.60;;;;;;;;;;5005965;28;20497;-52
2023/07/31 03:30:57;;;;;;;86.75;6.07;;;;;;;;;;5004993;28;20322;-53
2023/07/31 03:33:22;;;;;;;87.85;6.35;;;;;;;;;;5001835;28;20024;-53
2023/07/31 03:35:47;;;;;;;67.15;5.75;;;;;;;;;;5003337;28;20141;-52
2023/07/31 03:38:12;;;;;;;112.70;8.73;;;;;;;;;;5004011;28;20585;-54
2023/07/31 03:40:38;;;;;;;94.53;6.60;;;;;;;;;;5003139;28;20667;-52
2023/07/31 03:43:03;;;;;;;103.80;7.83;;;;;;;;;;5004407;28;20462;-52
2023/07/31 03:45:28;;;;;;;79.30;5.67;;;;;;;;;;5005850;28;20488;-52
2023/07/31 03:47:54;;;;;;;95.00;6.88;;;;;;;;;;5004406;28;20737;-52
2023/07/31 03:50:20;;;;;;;120.28;8.75;;;;;;;;;;5001451;28;20637;-52
2023/07/31 03:52:45;;;;;;;91.35;6.60;;;;;;;;;;5003732;28;20071;-52
2023/07/31 03:55:11;;;;;;;138.52;9.93;;;;;;;;;;5001287;28;20065;-53
2023/07/31 03:57:37;;;;;;;85.40;6.40;;;;;;;;;;5004276;28;20989;-54
2023/07/31 04:00:02;;;;;;;75.33;5.63;;;;;;;;;;5003225;28;20299;-53
2023/07/31 04:02:28;;;;;;;82.05;6.00;;;;;;;;;;5002820;28;20612;-54
2023/07/31 04:04:53;;;;;;;76.97;5.80;;;;;;;;;;5004323;28;20379;-55
2023/07/31 04:07:18;;;;;;;106.80;7.63;;;;;;;;;;5001327;28;20269;-55
2023/07/31 04:09:43;;;;;;;92.67;6.67;;;;;;;;;;5005832;28;20442;-54
2023/07/31 04:12:08;;;;;;;136.43;9.13;;;;;;;;;;5001231;28;20299;-53
2023/07/31 04:14:34;;;;;;;76.43;5.50;;;;;;;;;;5003426;28;20026;-52
2023/07/31 04:16:59;;;;;;;95.67;6.63;;;;;;;;;;5003362;28;20143;-53
2023/07/31 04:19:24;;;;;;;70.63;5.57;;;;;;;;;;5005669;28;20260;-53
2023/07/31 04:21:49;;;;;;;75.57;5.60;;;;;;;;;;5004990;28;20721;-52
2023/07/31 04:24:15;;;;;;;142.27;9.93;;;;;;;;;;5003319;28;20268;-52
2023/07/31 04:26:40;;;;;;;88.20;16.23;;;;;;;;;;5004579;28;20037;-52
2023/07/31 04:29:05;;;;;;;90.57;6.37;;;;;;;;;;5003913;28;20009;-53
2023/07/31 04:31:30;;;;;;;93.37;6.57;;;;;;;;;;5001840;28;20377;-52
2023/07/31 04:33:56;;;;;;;73.38;5.65;;;;;;;;;;5003344;28;20296;-54
2023/07/31 04:36:21;;;;;;;121.13;8.38;;;;;;;;;;5003195;28;20030;-54
2023/07/31 04:38:46;;;;;;;90.17;6.73;;;;;;;;;;5004711;28;20678;-54
2023/07/31 04:41:12;;;;;;;138.40;9.65;;;;;;;;;;5002114;28;20741;-54
2023/07/31 04:43:38;;;;;;;96.25;6.63;;;;;;;;;;5001719;28;20553;-53
2023/07/31 04:46:04;;;;;;;97.72;6.85;;;;;;;;;;5002972;28;20095;-54
2023/07/31 04:48:29;;;;;;;69.65;5.30;;;;;;;;;;5002632;28;20350;-52
2023/07/31 04:50:54;;;;;;;78.80;5.83;;;;;;;;;;5003157;28;20033;-54
2023/07/31 04:53:20;;;;;;;121.57;8.07;;;;;;;;;;5001938;28;20350;-54
2023/07/31 04:55:45;;;;;;;95.07;7.27;;;;;;;;;;5000885;28;20284;-52
2023/07/31 04:58:10;;;;;;;107.07;7.70;;;;;;;;;;5001672;28;20596;-52
2023/07/31 05:00:35;;;;;;;93.60;6.93;;;;;;;;;;5001966;28;20691;-53
2023/07/31 05:03:00;;;;;;;83.70;6.30;;;;;;;;;;5003838;28;20402;-55
2023/07/31 05:05:26;;;;;;;70.77;5.73;;;;;;;;;;5001457;28;20720;-54
2023/07/31 05:07:51;;;;;;;146.60;43.50;;;;;;;;;;5003717;28;20666;-53
2023/07/31 05:10:16;;;;;;;137.32;10.10;;;;;;;;;;5001821;28;20685;-55
2023/07/31 05:12:41;;;;;;;71.63;7.13;;;;;;;;;;5003859;28;20162;-53
2023/07/31 05:15:07;;;;;;;105.50;8.40;;;;;;;;;;5001031;28;20026;-53
2023/07/31 05:17:32;;;;;;;75.18;5.80;;;;;;;;;;5002116;28;20283;-52
2023/07/31 05:19:57;;;;;;;78.07;5.93;;;;;;;;;;5002777;28;20047;-52
2023/07/31 05:22:23;;;;;;;125.53;9.10;;;;;;;;;;5001995;28;20842;-52
2023/07/31 05:24:48;;;;;;;76.93;5.67;;;;;;;;;;5001427;28;20017;-52
2023/07/31 05:27:14;;;;;;;129.68;9.35;;;;;;;;;;4998884;28;20767;-53
2023/07/31 05:29:40;;;;;;;83.90;6.40;;;;;;;;;;5002159;28;20010;-53
2023/07/31 05:32:06;;;;;;;68.55;5.50;;;;;;;;;;5002036;28;20049;-53
2023/07/31 05:34:31;;;;;;;79.90;7.75;;;;;;;;;;5000858;28;20029;-52
2023/07/31 05:36:56;;;;;;;99.10;7.10;;;;;;;;;;5003050;28;20036;-53
2023/07/31 05:39:21;;;;;;;122.70;9.63;;;;;;;;;;5002171;28;20315;-53
2023/07/31 05:41:47;;;;;;;82.43;6.27;;;;;;;;;;5003307;28;20281;-53
2023/07/31 05:44:12;;;;;;;104.43;7.40;;;;;;;;;;4998551;28;20714;-52
2023/07/31 05:46:37;;;;;;;81.70;10.87;;;;;;;;;;5001168;28;20061;-53
2023/07/31 05:49:02;;;;;;;83.60;11.93;;;;;;;;;;5000392;28;20336;-52
2023/07/31 05:51:27;;;;;;;96.23;8.87;;;;;;;;;;4997319;28;20442;-51
2023/07/31 05:53:53;;;;;;;74.10;5.67;;;;;;;;;;5000426;28;20749;-51
2023/07/31 05:56:18;;;;;;;133.43;9.65;;;;;;;;;;5000205;28;20265;-50
2023/07/31 05:58:43;;;;;;;93.05;6.63;;;;;;;;;;5002075;28;20029;-52
2023/07/31 06:01:08;;;;;;;70.70;6.90;;;;;;;;;;5001413;28;20384;-50
2023/07/31 06:03:34;;;;;;;75.85;5.90;;;;;;;;;;5008483;28;20298;-55
2023/07/31 06:05:59;;;;;;;89.17;8.37;;;;;;;;;;5002328;28;20060;-54
2023/07/31 06:08:25;;;;;;;100.93;7.25;;;;;;;;;;5000802;28;20626;-53
2023/07/31 06:10:50;;;;;;;67.57;5.50;;;;;;;;;;5001369;28;20037;-52
2023/07/31 06:13:15;;;;;;;151.77;11.70;;;;;;;;;;5000797;28;20037;-53
2023/07/31 06:15:40;;;;;;;77.50;9.17;;;;;;;;;;5002155;28;20448;-52
2023/07/31 06:18:07;;;;;;;65.13;5.20;;;;;;;;;;5003470;28;20260;-53
2023/07/31 06:20:33;;;;;;;82.50;12.45;;;;;;;;;;5001782;28;20276;-54
2023/07/31 06:22:58;;;;;;;75.72;6.10;;;;;;;;;;5002273;28;20057;-53
2023/07/31 06:25:23;;;;;;;115.67;8.50;;;;;;;;;;5001203;28;20033;-53
2023/07/31 06:27:48;;;;;;;80.82;14.25;;;;;;;;;;5001966;28;20249;-53
2023/07/31 06:30:14;;;;;;;119.22;8.65;;;;;;;;;;5003632;28;20319;-52
2023/07/31 06:32:40;;;;;;;72.30;5.70;;;;;;;;;;5002661;28;20041;-52
2023/07/31 06:35:06;;;;;;;85.50;9.65;;;;;;;;;;5001339;28;20770;-52
2023/07/31 06:37:31;;;;;;;87.88;6.22;;;;;;;;;;5001032;28;20037;-53
2023/07/31 06:39:56;;;;;;;97.80;22.67;;;;;;;;;;5005247;28;20029;-52
2023/07/31 06:42:21;;;;;;;133.50;15.27;;;;;;;;;;5003426;28;20280;-55
2023/07/31 06:44:47;;;;;;;104.55;29.73;;;;;;;;;;5005869;28;20322;-52
2023/07/31 06:47:12;;;;;;;78.50;12.55;;;;;;;;;;5004743;28;20194;-54
2023/07/31 06:49:37;;;;;;;130.32;72.50;;;;;;;;;;5005373;28;20137;-53
2023/07/31 06:52:03;;;;;;;112.47;54.40;;;;;;;;;;5005183;28;20294;-53
2023/07/31 06:54:28;;;;;;;115.68;11.90;;;;;;;;;;5003925;28;20308;-54
2023/07/31 06:56:53;;;;;;;168.87;123.20;;;;;;;;;;5004694;28;20042;-52
2023/07/31 06:59:19;;;;;;;138.27;21.07;;;;;;;;;;5006484;28;20052;-53
2023/07/31 07:01:44;;;;;;;280.60;205.17;;;;;;;;;;5003673;28;20398;-53
2023/07/31 07:04:09;;;;;;;67.07;12.53;;;;;;;;;;5009514;28;20543;-53
2023/07/31 07:06:34;;;;;;;64.43;6.00;;;;;;;;;;5007700;28;20820;-53
2023/07/31 07:09:00;;;;;;;89.82;50.28;;;;;;;;;;5012154;28;20272;-55
2023/07/31 07:11:25;;;;;;;122.70;20.97;;;;;;;;;;5009835;28;20036;-54
2023/07/31 07:13:51;;;;;;;188.27;158.20;;;;;;;;;;5009464;28;20275;-53
2023/07/31 07:16:16;;;;;;;195.80;133.32;;;;;;;;;;5006648;28;20056;-53
2023/07/31 07:18:41;;;;;;;115.35;66.15;;;;;;;;;;5008897;28;20029;-53
2023/07/31 07:21:06;;;;;;;77.28;18.67;;;;;;;;;;5008230;28;20277;-54
2023/07/31 07:23:32;;;;;;;167.17;37.90;;;;;;;;;;5006671;28;20183;-53
2023/07/31 07:25:57;;;;;;;239.23;213.17;;;;;;;;;;5006636;28;20037;-52
2023/07/31 07:28:22;;;;;;;208.90;132.57;;;;;;;;;;5005131;28;20356;-52
2023/07/31 07:30:54;;;;;;;111.72;62.25;;;;;;;;;;5009035;28;20288;-52
2023/07/31 07:33:19;;;;;;;163.40;48.38;;;;;;;;;;5005956;28;20029;-52
2023/07/31 07:35:44;;;;;;;137.90;93.38;;;;;;;;;;5005879;28;20049;-52
2023/07/31 07:38:10;;;;;;;163.70;111.47;;;;;;;;;;5007027;28;20026;-53
2023/07/31 07:40:38;;;;;;;206.80;70.63;;;;;;;;;;5004949;28;20315;-52
2023/07/31 07:43:04;;;;;;;153.80;107.00;;;;;;;;;;5009661;28;20491;-55
2023/07/31 07:45:29;;;;;;;171.13;66.30;;;;;;;;;;5007064;28;20112;-53
2023/07/31 07:47:55;;;;;;;253.13;226.30;;;;;;;;;;5008534;28;20040;-53
2023/07/31 07:50:20;;;;;;;107.80;17.27;;;;;;;;;;5007130;28;20269;-53
2023/07/31 07:52:45;;;;;;;177.30;89.53;;;;;;;;;;5007135;28;20044;-52
2023/07/31 07:55:10;;;;;;;72.00;16.10;;;;;;;;;;5007701;28;20530;-54
2023/07/31 07:57:36;;;;;;;189.80;166.73;;;;;;;;;;5005009;28;20272;-53
2023/07/31 08:00:01;;;;;;;128.13;95.77;;;;;;;;;;5007591;28;20087;-55
2023/07/31 08:02:26;;;;;;;204.00;117.77;;;;;;;;;;5006588;28;20291;-55
2023/07/31 08:04:51;;;;;;;196.43;135.57;;;;;;;;;;5007621;28;20865;-55
2023/07/31 08:07:17;;;;;;;299.57;270.37;;;;;;;;;;5007615;28;20269;-58
2023/07/31 08:09:42;;;;;;;189.83;169.03;;;;;;;;;;5010028;28;20306;-54
2023/07/31 08:12:07;;;;;;;124.57;92.50;;;;;;;;;;5007527;28;20034;-53
2023/07/31 08:14:33;;;;;;;243.57;156.65;;;;;;;;;;5007113;28;20335;-53
2023/07/31 08:16:58;;;;;;;128.07;62.60;;;;;;;;;;5005701;28;20129;-53
2023/07/31 08:19:23;;;;;;;306.63;217.55;;;;;;;;;;5006501;28;20034;-53
2023/07/31 08:21:48;;;;;;;209.77;158.73;;;;;;;;;;5006579;28;20558;-53
2023/07/31 08:24:14;;;;;;;176.17;148.67;;;;;;;;;;5007377;28;20893;-55
2023/07/31 08:26:39;;;;;;;164.38;111.05;;;;;;;;;;5006823;28;20300;-56
2023/07/31 08:29:04;;;;;;;133.63;110.05;;;;;;;;;;5008689;28;20490;-53
2023/07/31 08:31:30;;;;;;;307.23;183.70;;;;;;;;;;5006805;28;20037;-54
2023/07/31 08:33:55;;;;;;;271.10;168.33;;;;;;;;;;5008384;28;20252;-53
2023/07/31 08:36:21;;;;;;;383.80;197.60;;;;;;;;;;5005449;28;20300;-54
2023/07/31 08:38:46;;;;;;;166.87;89.83;;;;;;;;;;5008352;28;20025;-54
2023/07/31 08:41:13;;;;;;;197.85;91.25;;;;;;;;;;5007743;28;20303;-55
2023/07/31 08:43:38;;;;;;;389.70;205.63;;;;;;;;;;5006292;28;20034;-53
2023/07/31 08:46:04;;;;;;;203.20;157.52;;;;;;;;;;5005588;28;20038;-53
2023/07/31 08:48:31;;;;;;;320.13;153.10;;;;;;;;;;5006200;28;20072;-52
2023/07/31 08:50:56;;;;;;;165.77;113.55;;;;;;;;;;5007938;28;20037;-53
2023/07/31 08:53:21;;;;;;;131.27;99.93;;;;;;;;;;5005255;28;20038;-51
2023/07/31 08:55:48;;;;;;;215.68;149.40;;;;;;;;;;5007387;28;20037;-51
2023/07/31 08:58:14;;;;;;;177.32;99.72;;;;;;;;;;5009046;28;20030;-50
2023/07/31 09:00:40;;;;;;;143.10;90.80;;;;;;;;;;5005210;28;20415;-51
2023/07/31 09:03:09;;;;;;;210.35;142.73;;;;;;;;;;5006513;28;20033;-50
2023/07/31 09:05:36;;;;;;;251.80;204.43;;;;;;;;;;5006333;28;20125;-51
2023/07/31 09:08:02;;;;;;;285.52;85.10;;;;;;;;;;5007932;28;20068;-51
2023/07/31 09:10:28;;;;;;;224.18;90.47;;;;;;;;;;5005708;28;20157;-52
2023/07/31 09:12:53;;;;;;;318.98;64.82;;;;;;;;;;5006575;28;20029;-53
2023/07/31 09:15:19;;;;;;;279.88;222.82;;;;;;;;;;5010527;28;20840;-51
2023/07/31 09:17:44;;;;;;;130.88;97.32;;;;;;;;;;5012792;28;20454;-51
2023/07/31 09:20:17;;;;;;;302.20;159.03;;;;;;;;;;5006370;28;20533;-52
2023/07/31 09:22:43;;;;;;;182.23;119.03;;;;;;;;;;5006000;28;20519;-52
2023/07/31 09:25:17;;;;;;;195.63;137.32;;;;;;;;;;5005989;28;20041;-53
2023/07/31 09:27:47;;;;;;;219.02;169.75;;;;;;;;;;5004602;28;20021;-53
2023/07/31 09:30:12;;;;;;;262.83;212.32;;;;;;;;;;5006060;28;20026;-53
2023/07/31 09:32:37;;;;;;;404.53;165.20;;;;;;;;;;5004311;28;20128;-53
2023/07/31 09:35:13;;;;;;;339.10;101.75;;;;;;;;;;5005920;28;20041;-54
2023/07/31 09:37:38;;;;;;;245.07;147.68;;;;;;;;;;5003805;28;20080;-55
2023/07/31 09:40:03;;;;;;;164.63;135.37;;;;;;;;;;5006503;28;20076;-53
2023/07/31 09:42:30;;;;;;;126.75;57.90;;;;;;;;;;5002609;28;20275;-51
2023/07/31 09:45:06;;;;;;;261.38;136.20;;;;;;;;;;5007063;28;20052;-53
2023/07/31 09:47:31;;;;;;;173.30;112.68;;;;;;;;;;5005757;28;20117;-54
2023/07/31 09:49:57;;;;;;;250.70;212.10;;;;;;;;;;5006823;28;20059;-53
2023/07/31 09:52:22;;;;;;;201.67;112.97;;;;;;;;;;5005566;28;20041;-54
2023/07/31 09:54:47;;;;;;;112.00;77.33;;;;;;;;;;5004429;28;20260;-53
2023/07/31 09:57:13;;;;;;;220.13;145.00;;;;;;;;;;5005773;28;20478;-53
2023/07/31 09:59:39;;;;;;;240.80;186.55;;;;;;;;;;5005398;28;20419;-52
2023/07/31 10:02:06;;;;;;;266.17;169.13;;;;;;;;;;5005497;28;20467;-52
2023/07/31 10:04:32;;;;;;;161.23;83.93;;;;;;;;;;5004343;28;20029;-53
2023/07/31 10:06:58;;;;;;;208.40;133.65;;;;;;;;;;5005400;28;20022;-52
2023/07/31 10:09:25;;;;;;;432.98;72.95;;;;;;;;;;5007237;28;20088;-52
2023/07/31 10:11:56;;;;;;;254.85;98.40;;;;;;;;;;5005173;28;20041;-52
2023/07/31 10:14:21;;;;;;;253.55;215.93;;;;;;;;;;5008940;28;20398;-53
2023/07/31 10:16:47;;;;;;;349.38;271.77;;;;;;;;;;5008977;28;20396;-53
2023/07/31 10:19:12;;;;;;;123.22;47.53;;;;;;;;;;5010619;28;20680;-53
2023/07/31 10:21:37;;;;;;;340.70;173.80;;;;;;;;;;5008670;28;20052;-53
2023/07/31 10:24:06;;;;;;;180.52;118.13;;;;;;;;;;5010076;28;20253;-52
2023/07/31 10:26:35;;;;;;;294.92;92.70;;;;;;;;;;5008552;28;20037;-53
2023/07/31 10:29:01;;;;;;;254.07;162.75;;;;;;;;;;5011000;28;20113;-53
2023/07/31 10:31:26;;;;;;;141.77;94.68;;;;;;;;;;5007168;28;20036;-52
2023/07/31 10:33:52;;;;;;;167.15;113.03;;;;;;;;;;5007930;28;20038;-54
2023/07/31 10:36:18;;;;;;;176.63;74.43;;;;;;;;;;5011916;28;20507;-52
2023/07/31 10:38:44;;;;;;;251.23;113.68;;;;;;;;;;5006853;28;20025;-53
2023/07/31 10:41:09;;;;;;;240.15;165.57;;;;;;;;;;5008892;28;20072;-53
2023/07/31 10:43:36;;;;;;;344.10;199.88;;;;;;;;;;5008529;28;20072;-54
2023/07/31 10:46:05;;;;;;;196.23;155.48;;;;;;;;;;5008770;28;20132;-53
2023/07/31 10:48:33;;;;;;;178.82;115.10;;;;;;;;;;5007980;28;20055;-55
2023/07/31 10:50:58;;;;;;;235.80;92.22;;;;;;;;;;5009520;28;20048;-53
2023/07/31 10:53:28;;;;;;;139.70;58.42;;;;;;;;;;5009471;28;20021;-53
2023/07/31 10:55:57;;;;;;;173.05;105.90;;;;;;;;;;5008730;28;20038;-54
2023/07/31 10:58:22;;;;;;;159.35;95.50;;;;;;;;;;5009570;28;20290;-53
2023/07/31 11:00:48;;;;;;;378.47;117.63;;;;;;;;;;5006249;28;20038;-53
2023/07/31 11:03:13;;;;;;;181.85;137.50;;;;;;;;;;5010550;28;20269;-53
2023/07/31 11:05:42;;;;;;;326.83;224.03;;;;;;;;;;5007246;28;20048;-54
2023/07/31 11:08:26;;;;;;;376.50;207.15;;;;;;;;;;5010137;28;20026;-52
2023/07/31 11:11:03;;;;;;;194.20;146.57;;;;;;;;;;5008572;28;20053;-52
2023/07/31 11:13:29;;;;;;;175.43;147.85;;;;;;;;;;5007363;28;20127;-52
2023/07/31 11:15:54;;;;;;;249.60;210.17;;;;;;;;;;5007964;28;20540;-52
2023/07/31 11:18:19;;;;;;;191.32;149.90;;;;;;;;;;5010723;28;20456;-54
2023/07/31 11:20:45;;;;;;;249.85;105.57;;;;;;;;;;5004479;28;20500;-52
2023/07/31 11:23:10;;;;;;;190.77;149.13;;;;;;;;;;5007350;28;20026;-51
2023/07/31 11:25:36;;;;;;;252.77;125.95;;;;;;;;;;5005099;28;20041;-51
2023/07/31 11:28:04;;;;;;;255.15;192.00;;;;;;;;;;5008889;28;20050;-51
2023/07/31 11:30:29;;;;;;;126.70;75.90;;;;;;;;;;5006689;28;20092;-51
2023/07/31 11:32:55;;;;;;;322.45;225.75;;;;;;;;;;5009017;28;20567;-52
2023/07/31 11:35:20;;;;;;;258.48;119.60;;;;;;;;;;5007028;28;20054;-52
2023/07/31 11:37:45;;;;;;;315.00;148.00;;;;;;;;;;5007281;28;20018;-52
2023/07/31 11:40:11;;;;;;;217.13;112.47;;;;;;;;;;5008502;28;20280;-54
2023/07/31 11:42:36;;;;;;;203.90;138.60;;;;;;;;;;5009740;28;20085;-52
2023/07/31 11:45:05;;;;;;;151.85;114.43;;;;;;;;;;5008955;28;20092;-51
2023/07/31 11:47:36;;;;;;;193.93;111.75;;;;;;;;;;5006119;28;20038;-51
2023/07/31 11:50:09;;;;;;;191.47;139.60;;;;;;;;;;5008832;28;20017;-54
2023/07/31 11:52:41;;;;;;;238.25;200.73;;;;;;;;;;5006636;28;20273;-52
2023/07/31 11:55:06;;;;;;;;;;;;;;;;;;5008818;28;20026;-53
2023/07/31 11:57:32;;;;;;;202.53;180.77;;;;;;;;;;5007669;28;19909;-53
2023/07/31 11:59:57;;;;;;;127.47;85.68;;;;;;;;;;5011256;28;20174;-52
2023/07/31 12:02:23;;;;;;;242.63;216.00;;;;;;;;;;5008532;28;20117;-52
2023/07/31 12:04:48;;;;;;;192.05;102.15;;;;;;;;;;5013849;28;20272;-52
2023/07/31 12:07:13;;;;;;;144.75;104.00;;;;;;;;;;5009011;28;20034;-53
2023/07/31 12:09:50;;;;;;;236.52;154.63;;;;;;;;;;5007804;28;20018;-53
2023/07/31 12:12:19;;;;;;;252.43;192.27;;;;;;;;;;5008983;28;20033;-54
2023/07/31 12:14:44;;;;;;;186.52;108.43;;;;;;;;;;5005377;28;20052;-54
2023/07/31 12:17:09;;;;;;;245.07;220.20;;;;;;;;;;5008304;28;20064;-54
2023/07/31 12:19:35;;;;;;;279.77;237.97;;;;;;;;;;5007111;28;20264;-53
2023/07/31 12:22:00;;;;;;;320.35;283.38;;;;;;;;;;5008589;28;20364;-53
2023/07/31 12:24:26;;;;;;;196.05;175.35;;;;;;;;;;5007681;28;20030;-53
2023/07/31 12:26:52;;;;;;;229.93;152.68;;;;;;;;;;5006186;28;20064;-51
2023/07/31 12:29:17;;;;;;;234.23;190.30;;;;;;;;;;5007339;28;20403;-52
2023/07/31 12:31:43;;;;;;;298.40;236.85;;;;;;;;;;5007348;28;20029;-52
2023/07/31 12:34:15;;;;;;;207.57;166.07;;;;;;;;;;5007961;28;20033;-52
2023/07/31 12:36:42;;;;;;;182.32;131.77;;;;;;;;;;5003743;28;20988;-53
2023/07/31 12:39:07;;;;;;;165.85;114.47;;;;;;;;;;5007240;28;20105;-52
2023/07/31 12:41:33;;;;;;;143.13;104.93;;;;;;;;;;5008150;28;20053;-53
2023/07/31 12:43:59;;;;;;;303.30;189.65;;;;;;;;;;5005195;28;20029;-52
2023/07/31 12:46:24;;;;;;;209.73;164.45;;;;;;;;;;5004372;28;20488;-53
2023/07/31 12:48:50;;;;;;;189.27;92.97;;;;;;;;;;5006187;28;20322;-53
2023/07/31 12:51:15;;;;;;;172.83;133.47;;;;;;;;;;5006020;28;20495;-54
2023/07/31 12:53:40;;;;;;;257.98;124.25;;;;;;;;;;5004662;28;20288;-52
2023/07/31 12:56:06;;;;;;;271.40;137.63;;;;;;;;;;5006968;28;20034;-55
2023/07/31 12:58:31;;;;;;;109.30;79.68;;;;;;;;;;5006856;28;20088;-51
2023/07/31 13:00:56;;;;;;;135.20;81.13;;;;;;;;;;5003539;28;20427;-53
2023/07/31 13:03:21;;;;;;;125.90;99.55;;;;;;;;;;5006117;28;20030;-52
2023/07/31 13:05:47;;;;;;;256.27;142.30;;;;;;;;;;5004702;28;20657;-52
2023/07/31 13:08:12;;;;;;;160.43;93.60;;;;;;;;;;5013868;28;20311;-52
2023/07/31 13:10:37;;;;;;;241.47;176.30;;;;;;;;;;5005159;28;20830;-51
2023/07/31 13:13:02;;;;;;;180.40;128.73;;;;;;;;;;5006393;28;20383;-52
2023/07/31 13:15:28;;;;;;;194.73;147.47;;;;;;;;;;5004312;28;20272;-52
2023/07/31 13:17:53;;;;;;;270.27;170.85;;;;;;;;;;5005765;28;20014;-54
2023/07/31 13:20:18;;;;;;;196.37;116.07;;;;;;;;;;5005899;28;20033;-53
2023/07/31 13:22:43;;;;;;;236.50;133.03;;;;;;;;;;5004250;28;20032;-52
2023/07/31 13:25:09;;;;;;;275.73;236.53;;;;;;;;;;5006934;28;20316;-53
2023/07/31 13:27:34;;;;;;;255.27;180.10;;;;;;;;;;5006994;28;20626;-52
2023/07/31 13:30:00;;;;;;;160.93;98.75;;;;;;;;;;5004878;28;20467;-53
2023/07/31 13:32:25;;;;;;;229.30;199.93;;;;;;;;;;5005836;28;20045;-52
2023/07/31 13:34:51;;;;;;;225.80;168.50;;;;;;;;;;5004958;28;20347;-53
2023/07/31 13:37:16;;;;;;;166.85;113.60;;;;;;;;;;5004853;28;20038;-51
2023/07/31 13:39:41;;;;;;;163.23;103.63;;;;;;;;;;5005967;28;20439;-55
2023/07/31 13:42:08;;;;;;;187.77;128.32;;;;;;;;;;5005794;28;20132;-51
2023/07/31 13:44:37;;;;;;;258.90;207.98;;;;;;;;;;5009121;28;20388;-53
2023/07/31 13:47:02;;;;;;;225.55;167.85;;;;;;;;;;5005417;28;20033;-52
2023/07/31 13:49:27;;;;;;;129.32;91.07;;;;;;;;;;5008211;28;20017;-52
2023/07/31 13:51:53;;;;;;;161.95;89.07;;;;;;;;;;5004582;28;20551;-54
2023/07/31 13:54:18;;;;;;;276.43;161.03;;;;;;;;;;5005879;28;20119;-53
2023/07/31 13:56:43;;;;;;;324.35;224.70;;;;;;;;;;5006046;28;20511;-52
2023/07/31 13:59:09;;;;;;;181.30;124.05;;;;;;;;;;5007672;28;20029;-53
2023/07/31 14:01:35;;;;;;;194.23;173.10;;;;;;;;;;5007296;28;20722;-53